createdAt,value
2018-05-14T00:00:38.516Z,14.66
2018-05-14T00:01:37.299Z,14.66
2018-05-14T00:02:38.259Z,14.65
2018-05-14T00:03:38.575Z,14.65
2018-05-14T00:04:37.511Z,14.68
2018-05-14T00:05:37.483Z,14.68
2018-05-14T00:06:37.266Z,14.68
2018-05-14T00:07:38.480Z,14.69
2018-05-14T00:08:37.552Z,14.69
2018-05-14T00:09:37.759Z,14.68
2018-05-14T00:10:37.965Z,14.66
2018-05-14T00:11:38.129Z,14.69
2018-05-14T00:12:37.920Z,14.70
2018-05-14T00:13:38.047Z,14.72
2018-05-14T00:14:38.176Z,14.70
2018-05-14T00:15:37.897Z,14.70
2018-05-14T00:16:38.018Z,14.72
2018-05-14T00:17:37.600Z,14.70
2018-05-14T00:18:37.769Z,14.70
2018-05-14T00:19:37.925Z,14.70
2018-05-14T00:20:37.873Z,14.70
2018-05-14T00:21:37.945Z,14.72
2018-05-14T00:23:19.184Z,14.70
2018-05-14T00:24:19.099Z,14.73
2018-05-14T00:25:18.799Z,14.73
2018-05-14T00:26:19.910Z,14.77
2018-05-14T00:27:19.578Z,14.77
2018-05-14T00:28:19.689Z,14.77
2018-05-14T00:29:19.482Z,14.77
2018-05-14T00:30:19.552Z,14.72
2018-05-14T00:31:19.612Z,14.70
2018-05-14T00:32:19.770Z,14.69
2018-05-14T00:33:39.909Z,14.65
2018-05-14T00:34:40.842Z,14.62
2018-05-14T00:35:40.762Z,14.62
2018-05-14T00:37:01.192Z,14.63
2018-05-14T00:38:21.782Z,14.62
2018-05-14T00:39:22.474Z,14.58
2018-05-14T00:40:22.262Z,14.55
2018-05-14T00:41:42.870Z,14.55
2018-05-14T00:42:44.003Z,14.58
2018-05-14T00:43:44.016Z,14.55
2018-05-14T00:44:43.598Z,14.58
2018-05-14T00:45:43.826Z,14.54
2018-05-14T00:46:43.565Z,14.54
2018-05-14T00:48:04.301Z,14.58
2018-05-14T00:49:04.434Z,14.55
2018-05-14T00:50:04.112Z,14.55
2018-05-14T00:51:05.055Z,14.59
2018-05-14T00:52:04.698Z,14.60
2018-05-14T00:53:24.836Z,14.60
2018-05-14T00:54:25.576Z,14.60
2018-05-14T00:55:25.277Z,14.60
2018-05-14T00:56:25.447Z,14.60
2018-05-14T00:57:25.456Z,14.60
2018-05-14T00:58:46.720Z,14.62
2018-05-14T00:59:47.001Z,14.62
2018-05-14T01:00:47.046Z,14.62
2018-05-14T01:02:07.246Z,14.63
2018-05-14T01:03:08.296Z,14.62
2018-05-14T01:04:08.339Z,14.62
2018-05-14T01:05:08.576Z,14.60
2018-05-14T01:06:07.600Z,14.62
2018-05-14T01:07:07.294Z,14.60
2018-05-14T01:08:28.713Z,14.60
2018-05-14T01:09:28.378Z,14.59
2018-05-14T01:10:29.146Z,14.58
2018-05-14T01:11:28.888Z,14.59
2018-05-14T01:12:28.994Z,14.60
2018-05-14T01:13:28.791Z,14.60
2018-05-14T01:14:28.899Z,14.60
2018-05-14T01:15:28.960Z,14.60
2018-05-14T01:16:28.784Z,14.62
2018-05-14T01:17:28.531Z,14.62
2018-05-14T01:18:29.576Z,14.60
2018-05-14T01:19:29.460Z,14.60
2018-05-14T01:20:29.510Z,14.60
2018-05-14T01:21:29.626Z,14.59
2018-05-14T01:22:29.265Z,14.60
2018-05-14T01:23:29.208Z,14.60
2018-05-14T01:24:28.945Z,14.62
2018-05-14T01:25:29.027Z,14.63
2018-05-14T01:26:29.894Z,14.65
2018-05-14T01:27:29.189Z,14.65
2018-05-14T01:28:28.758Z,14.63
2018-05-14T01:29:28.432Z,14.65
2018-05-14T01:30:29.136Z,14.63
2018-05-14T01:31:28.761Z,14.65
2018-05-14T01:32:28.434Z,14.66
2018-05-14T01:33:29.268Z,14.66
2018-05-14T01:34:28.910Z,14.68
2018-05-14T01:35:28.890Z,14.66
2018-05-14T01:36:28.591Z,14.68
2018-05-14T01:37:49.164Z,14.66
2018-05-14T01:38:48.903Z,14.65
2018-05-14T01:39:49.923Z,14.65
2018-05-14T01:40:49.821Z,14.65
2018-05-14T01:41:49.352Z,14.66
2018-05-14T01:43:30.702Z,14.66
2018-05-14T01:44:51.046Z,14.68
2018-05-14T01:45:51.541Z,14.65
2018-05-14T01:46:51.663Z,14.65
2018-05-14T01:48:12.526Z,14.65
2018-05-14T01:49:13.025Z,14.65
2018-05-14T01:50:13.061Z,14.63
2018-05-14T01:51:12.741Z,14.63
2018-05-14T01:52:33.143Z,14.63
2018-05-14T01:53:34.289Z,14.59
2018-05-14T01:54:33.991Z,14.59
2018-05-14T01:55:33.669Z,14.58
2018-05-14T01:56:33.386Z,14.59
2018-05-14T01:57:34.305Z,14.59
2018-05-14T01:58:55.073Z,14.58
2018-05-14T01:59:55.249Z,14.58
2018-05-14T02:00:55.257Z,14.54
2018-05-14T02:01:55.408Z,14.54
2018-05-14T02:02:55.007Z,14.50
2018-05-14T02:03:54.749Z,14.48
2018-05-14T02:04:55.854Z,14.47
2018-05-14T02:05:55.676Z,14.47
2018-05-14T02:06:55.421Z,14.44
2018-05-14T02:07:55.017Z,14.44
2018-05-14T02:08:54.765Z,14.44
2018-05-14T02:09:55.941Z,14.43
2018-05-14T02:10:55.505Z,14.41
2018-05-14T02:11:55.209Z,14.40
2018-05-14T02:13:15.989Z,14.40
2018-05-14T02:14:16.648Z,14.36
2018-05-14T02:15:16.321Z,14.33
2018-05-14T02:16:36.445Z,14.32
2018-05-14T02:17:37.204Z,14.32
2018-05-14T02:18:57.643Z,14.30
2018-05-14T02:19:58.709Z,14.29
2018-05-14T02:20:59.158Z,14.26
2018-05-14T02:22:18.190Z,14.28
2018-05-14T02:23:19.302Z,14.26
2018-05-14T02:24:19.049Z,14.22
2018-05-14T02:25:19.170Z,14.22
2018-05-14T02:26:19.214Z,14.22
2018-05-14T02:27:18.873Z,14.17
2018-05-14T02:28:18.611Z,14.18
2018-05-14T02:30:00.201Z,14.18
2018-05-14T02:31:00.904Z,14.18
2018-05-14T02:32:21.051Z,14.17
2018-05-14T02:33:22.211Z,14.12
2018-05-14T02:34:22.228Z,14.11
2018-05-14T02:35:21.435Z,14.08
2018-05-14T02:36:22.293Z,14.08
2018-05-14T02:37:21.895Z,14.05
2018-05-14T02:38:22.149Z,14.04
2018-05-14T02:39:21.953Z,14.03
2018-05-14T02:40:21.855Z,14.03
2018-05-14T02:41:24.121Z,13.99
2018-05-14T02:42:22.278Z,13.99
2018-05-14T02:43:21.837Z,13.96
2018-05-14T02:44:21.829Z,13.96
2018-05-14T02:45:21.520Z,13.95
2018-05-14T02:46:21.224Z,13.93
2018-05-14T02:47:22.128Z,13.93
2018-05-14T02:48:22.758Z,13.92
2018-05-14T02:49:21.638Z,13.92
2018-05-14T02:50:21.315Z,13.90
2018-05-14T02:51:21.632Z,13.89
2018-05-14T02:52:41.757Z,13.87
2018-05-14T02:53:42.442Z,13.89
2018-05-14T02:54:42.441Z,13.89
2018-05-14T02:55:42.136Z,13.89
2018-05-14T02:57:03.820Z,13.90
2018-05-14T02:58:24.831Z,13.90
2018-05-14T02:59:25.577Z,13.89
2018-05-14T03:00:25.478Z,13.87
2018-05-14T03:01:45.910Z,13.87
2018-05-14T03:02:46.838Z,13.87
2018-05-14T03:03:46.398Z,13.86
2018-05-14T03:04:46.459Z,13.83
2018-05-14T03:05:46.554Z,13.85
2018-05-14T03:06:46.641Z,13.83
2018-05-14T03:07:46.573Z,13.81
2018-05-14T03:08:46.289Z,13.79
2018-05-14T03:09:45.974Z,13.79
2018-05-14T03:10:45.949Z,13.81
2018-05-14T03:11:46.090Z,13.79
2018-05-14T03:12:45.892Z,13.79
2018-05-14T03:14:07.311Z,13.77
2018-05-14T03:15:08.017Z,13.75
2018-05-14T03:16:07.826Z,13.74
2018-05-14T03:17:07.939Z,13.72
2018-05-14T03:18:08.074Z,13.71
2018-05-14T03:19:07.641Z,13.70
2018-05-14T03:20:07.548Z,13.70
2018-05-14T03:21:08.630Z,13.68
2018-05-14T03:22:07.856Z,13.67
2018-05-14T03:23:07.558Z,13.63
2018-05-14T03:24:07.379Z,13.60
2018-05-14T03:25:08.017Z,13.60
2018-05-14T03:26:08.137Z,13.57
2018-05-14T03:27:08.261Z,13.54
2018-05-14T03:28:08.449Z,13.53
2018-05-14T03:29:07.252Z,13.53
2018-05-14T03:30:08.330Z,13.53
2018-05-14T03:31:08.537Z,13.50
2018-05-14T03:32:07.382Z,13.50
2018-05-14T03:33:08.515Z,13.47
2018-05-14T03:34:07.740Z,13.47
2018-05-14T03:35:07.455Z,13.44
2018-05-14T03:36:28.521Z,13.42
2018-05-14T03:37:28.663Z,13.42
2018-05-14T03:38:29.346Z,13.41
2018-05-14T03:39:29.041Z,13.38
2018-05-14T03:40:28.775Z,13.38
2018-05-14T03:41:28.586Z,13.33
2018-05-14T03:42:28.655Z,13.31
2018-05-14T03:43:28.821Z,13.30
2018-05-14T03:44:49.905Z,13.27
2018-05-14T03:45:49.573Z,13.27
2018-05-14T03:46:50.317Z,13.25
2018-05-14T03:47:50.019Z,13.23
2018-05-14T03:48:49.667Z,13.20
2018-05-14T03:49:50.756Z,13.20
2018-05-14T03:50:50.822Z,13.19
2018-05-14T03:51:50.051Z,13.19
2018-05-14T03:52:49.824Z,13.18
2018-05-14T03:53:50.962Z,13.16
2018-05-14T03:55:30.896Z,13.12
2018-05-14T03:56:52.482Z,13.11
2018-05-14T03:57:52.620Z,13.12
2018-05-14T03:59:13.490Z,13.11
2018-05-14T04:00:13.334Z,13.11
2018-05-14T04:01:14.051Z,13.09
2018-05-14T04:02:34.979Z,13.05
2018-05-14T04:03:34.644Z,13.08
2018-05-14T04:04:35.744Z,13.08
2018-05-14T04:05:34.531Z,13.05
2018-05-14T04:06:35.564Z,13.05
2018-05-14T04:07:35.754Z,13.05
2018-05-14T04:08:35.571Z,13.05
2018-05-14T04:09:35.248Z,13.08
2018-05-14T04:10:35.780Z,13.08
2018-05-14T04:11:35.559Z,13.09
2018-05-14T04:12:35.416Z,13.09
2018-05-14T04:13:35.463Z,13.09
2018-05-14T04:14:35.073Z,13.11
2018-05-14T04:15:35.271Z,13.08
2018-05-14T04:16:35.240Z,13.09
2018-05-14T04:17:35.477Z,13.11
2018-05-14T04:18:35.397Z,13.11
2018-05-14T04:19:35.770Z,13.11
2018-05-14T04:20:34.620Z,13.12
2018-05-14T04:21:35.764Z,13.13
2018-05-14T04:22:34.855Z,13.15
2018-05-14T04:23:34.705Z,13.15
2018-05-14T04:24:34.882Z,13.13
2018-05-14T04:25:56.128Z,13.13
2018-05-14T04:26:56.907Z,13.13
2018-05-14T04:27:56.675Z,13.13
2018-05-14T04:28:56.335Z,13.15
2018-05-14T04:29:57.433Z,13.18
2018-05-14T04:30:56.285Z,13.22
2018-05-14T04:31:56.505Z,13.38
2018-05-14T04:32:56.478Z,13.57
2018-05-14T04:33:56.283Z,13.68
2018-05-14T04:34:57.172Z,13.83
2018-05-14T04:35:56.962Z,13.97
2018-05-14T04:36:56.645Z,14.04
2018-05-14T04:37:58.289Z,14.12
2018-05-14T04:38:57.087Z,14.18
2018-05-14T04:40:18.152Z,14.15
2018-05-14T04:41:18.212Z,14.10
2018-05-14T04:42:17.929Z,14.04
2018-05-14T04:43:18.909Z,14.00
2018-05-14T04:44:18.714Z,13.97
2018-05-14T04:45:38.879Z,13.92
2018-05-14T04:46:39.533Z,13.85
2018-05-14T04:47:39.270Z,13.77
2018-05-14T04:48:39.466Z,13.72
2018-05-14T04:49:39.480Z,13.67
2018-05-14T04:50:39.521Z,13.60
2018-05-14T04:51:40.093Z,13.60
2018-05-14T04:52:40.100Z,13.60
2018-05-14T04:53:39.860Z,13.63
2018-05-14T04:54:39.556Z,13.67
2018-05-14T04:55:39.683Z,13.70
2018-05-14T04:56:39.733Z,13.68
2018-05-14T04:57:40.317Z,13.65
2018-05-14T04:58:38.998Z,13.60
2018-05-14T04:59:59.627Z,13.59
2018-05-14T05:01:00.247Z,13.59
2018-05-14T05:02:00.073Z,13.54
2018-05-14T05:02:59.725Z,13.52
2018-05-14T05:04:00.419Z,13.53
2018-05-14T05:05:00.356Z,13.53
2018-05-14T05:05:59.934Z,13.50
2018-05-14T05:07:00.022Z,13.52
2018-05-14T05:08:20.494Z,13.49
2018-05-14T05:09:21.452Z,13.49
2018-05-14T05:10:21.285Z,13.47
2018-05-14T05:11:21.138Z,13.47
2018-05-14T05:12:42.604Z,13.49
2018-05-14T05:13:42.466Z,13.54
2018-05-14T05:14:42.561Z,13.56
2018-05-14T05:15:43.674Z,13.56
2018-05-14T05:16:42.574Z,13.59
2018-05-14T05:18:03.643Z,13.57
2018-05-14T05:19:03.488Z,13.59
2018-05-14T05:20:04.063Z,13.60
2018-05-14T05:21:24.410Z,13.75
2018-05-14T05:22:24.227Z,13.96
2018-05-14T05:23:25.020Z,14.29
2018-05-14T05:24:45.896Z,14.69
2018-05-14T05:25:46.149Z,14.96
2018-05-14T05:26:46.113Z,14.94
2018-05-14T05:27:45.954Z,14.96
2018-05-14T05:28:46.454Z,15.04
2018-05-14T05:29:46.302Z,15.21
2018-05-14T05:30:46.225Z,15.22
2018-05-14T05:31:46.545Z,15.36
2018-05-14T05:32:46.831Z,15.57
2018-05-14T05:33:46.512Z,15.84
2018-05-14T05:34:46.465Z,15.90
2018-05-14T05:35:46.258Z,15.98
2018-05-14T05:36:47.013Z,16.24
2018-05-14T05:37:47.031Z,16.36
2018-05-14T05:38:46.612Z,16.49
2018-05-14T05:40:07.867Z,16.33
2018-05-14T05:41:08.728Z,16.41
2018-05-14T05:42:08.807Z,16.47
2018-05-14T05:43:37.462Z,16.64
2018-05-14T05:44:32.781Z,16.68
2018-05-14T05:46:33.633Z,16.64
2018-05-14T05:47:55.653Z,16.61
2018-05-14T05:48:55.480Z,16.57
2018-05-14T05:49:56.410Z,16.74
2018-05-14T05:50:56.314Z,16.86
2018-05-14T05:51:56.041Z,16.81
2018-05-14T05:52:56.030Z,16.76
2018-05-14T05:53:55.955Z,16.74
2018-05-14T05:54:55.840Z,16.87
2018-05-14T05:55:56.110Z,16.97
2018-05-14T05:56:55.931Z,16.99
2018-05-14T05:57:55.681Z,17.12
2018-05-14T05:58:55.639Z,17.06
2018-05-14T05:59:55.847Z,17.20
2018-05-14T06:00:56.079Z,17.12
2018-05-14T06:01:55.966Z,17.04
2018-05-14T06:02:55.770Z,17.15
2018-05-14T06:03:55.610Z,17.46
2018-05-14T06:05:08.134Z,17.63
2018-05-14T06:06:16.691Z,17.59
2018-05-14T06:07:17.556Z,17.64
2018-05-14T06:08:17.425Z,17.71
2018-05-14T06:09:17.658Z,17.74
2018-05-14T06:10:17.719Z,17.74
2018-05-14T06:11:17.929Z,17.64
2018-05-14T06:12:17.628Z,17.78
2018-05-14T06:13:38.316Z,18.10
2018-05-14T06:14:38.653Z,18.35
2018-05-14T06:15:59.552Z,18.56
2018-05-14T06:17:19.950Z,18.55
2018-05-14T06:18:21.782Z,18.43
2018-05-14T06:19:20.630Z,18.35
2018-05-14T06:20:21.079Z,18.50
2018-05-14T06:21:20.868Z,18.43
2018-05-14T06:22:21.783Z,18.50
2018-05-14T06:23:41.926Z,18.65
2018-05-14T06:25:03.419Z,18.73
2018-05-14T06:26:24.134Z,18.90
2018-05-14T06:27:24.991Z,18.86
2018-05-14T06:28:24.879Z,18.93
2018-05-14T06:29:24.710Z,18.95
2018-05-14T06:31:09.885Z,19.14
2018-05-14T06:31:57.605Z,19.16
2018-05-14T06:32:57.952Z,19.19
2018-05-14T06:33:56.890Z,19.11
2018-05-14T06:34:59.650Z,19.33
2018-05-14T06:35:57.555Z,19.51
2018-05-14T06:36:57.471Z,19.58
2018-05-14T06:37:57.699Z,19.64
2018-05-14T06:38:57.667Z,19.67
2018-05-14T06:39:57.784Z,19.89
2018-05-14T06:40:57.625Z,19.99
2018-05-14T06:41:57.862Z,20.11
2018-05-14T06:42:57.621Z,20.21
2018-05-14T06:43:58.428Z,20.41
2018-05-14T06:44:57.308Z,20.44
2018-05-14T06:45:57.691Z,20.28
2018-05-14T06:46:57.564Z,20.55
2018-05-14T06:47:58.165Z,20.58
2018-05-14T06:48:57.005Z,20.65
2018-05-14T06:50:18.019Z,21.02
2018-05-14T06:51:18.839Z,20.97
2018-05-14T06:52:18.970Z,21.15
2018-05-14T06:53:19.025Z,21.40
2018-05-14T06:54:18.456Z,21.27
2018-05-14T06:55:18.633Z,21.03
2018-05-14T06:56:39.341Z,21.09
2018-05-14T06:57:40.673Z,21.37
2018-05-14T06:58:39.542Z,21.46
2018-05-14T06:59:39.431Z,21.70
2018-05-14T07:00:39.333Z,21.85
2018-05-14T07:01:40.252Z,22.07
2018-05-14T07:02:40.436Z,22.07
2018-05-14T07:03:40.638Z,22.22
2018-05-14T07:04:39.948Z,22.43
2018-05-14T07:05:39.676Z,22.47
2018-05-14T07:07:00.651Z,22.78
2018-05-14T07:08:00.581Z,22.96
2018-05-14T07:09:00.480Z,23.03
2018-05-14T07:10:01.962Z,23.06
2018-05-14T07:11:01.194Z,23.17
2018-05-14T07:12:01.083Z,23.36
2018-05-14T07:13:00.818Z,23.48
2018-05-14T07:14:01.001Z,23.66
2018-05-14T07:15:00.717Z,23.87
2018-05-14T07:16:21.635Z,24.03
2018-05-14T07:17:21.908Z,23.95
2018-05-14T07:18:42.900Z,23.80
2018-05-14T07:19:42.886Z,23.68
2018-05-14T07:20:42.617Z,23.68
2018-05-14T07:22:04.690Z,23.31
2018-05-14T07:23:04.616Z,23.34
2018-05-14T07:24:04.344Z,23.71
2018-05-14T07:25:04.688Z,24.14
2018-05-14T07:26:04.691Z,24.14
2018-05-14T07:27:05.061Z,23.98
2018-05-14T07:28:05.000Z,24.20
2018-05-14T07:29:04.821Z,24.11
2018-05-14T07:30:04.782Z,24.11
2018-05-14T07:31:05.033Z,23.76
2018-05-14T07:32:04.814Z,23.76
2018-05-14T07:33:04.623Z,24.06
2018-05-14T07:34:04.873Z,24.18
2018-05-14T07:35:04.959Z,24.68
2018-05-14T07:36:05.099Z,25.03
2018-05-14T07:37:05.407Z,25.26
2018-05-14T07:38:05.192Z,25.62
2018-05-14T07:39:05.657Z,26.00
2018-05-14T07:40:04.653Z,25.84
2018-05-14T07:41:05.109Z,25.84
2018-05-14T07:42:05.277Z,26.02
2018-05-14T07:43:05.441Z,25.91
2018-05-14T07:44:04.313Z,25.90
2018-05-14T07:45:05.609Z,25.99
2018-05-14T07:46:04.586Z,26.05
2018-05-14T07:47:04.619Z,25.98
2018-05-14T07:48:15.469Z,26.03
2018-05-14T07:49:05.258Z,26.29
2018-05-14T07:50:06.455Z,26.05
2018-05-14T07:51:04.730Z,26.05
2018-05-14T07:52:47.257Z,26.26
2018-05-14T07:53:47.291Z,26.15
2018-05-14T07:54:47.530Z,26.13
2018-05-14T07:55:47.660Z,26.23
2018-05-14T07:56:47.777Z,26.22
2018-05-14T07:57:47.435Z,26.38
2018-05-14T07:58:47.693Z,26.65
2018-05-14T07:59:48.013Z,26.73
2018-05-14T08:00:46.896Z,26.62
2018-05-14T08:01:47.734Z,26.83
2018-05-14T08:03:09.095Z,27.02
2018-05-14T08:04:29.811Z,27.33
2018-05-14T08:05:29.687Z,27.30
2018-05-14T08:06:30.856Z,27.26
2018-05-14T08:07:50.225Z,27.12
2018-05-14T08:08:50.931Z,27.54
2018-05-14T08:09:50.710Z,27.85
2018-05-14T08:10:50.841Z,28.10
2018-05-14T08:12:11.899Z,28.45
2018-05-14T08:13:11.623Z,28.81
2018-05-14T08:14:12.406Z,29.08
2018-05-14T08:15:12.360Z,29.05
2018-05-14T08:16:13.047Z,28.93
2018-05-14T08:17:33.072Z,29.13
2018-05-14T08:18:33.057Z,28.76
2018-05-14T08:19:53.801Z,28.78
2018-05-14T08:20:53.644Z,28.67
2018-05-14T08:22:14.864Z,29.10
2018-05-14T08:23:15.177Z,29.23
2018-05-14T08:24:15.009Z,29.19
2018-05-14T08:25:14.886Z,29.34
2018-05-14T08:26:15.107Z,29.17
2018-05-14T08:27:14.899Z,29.50
2018-05-14T08:28:14.635Z,29.61
2018-05-14T08:29:15.832Z,29.87
2018-05-14T08:30:14.540Z,29.90
2018-05-14T08:31:15.246Z,30.09
2018-05-14T08:32:16.143Z,30.02
2018-05-14T08:33:15.040Z,30.09
2018-05-14T08:34:14.800Z,30.37
2018-05-14T08:35:14.605Z,30.66
2018-05-14T08:36:15.515Z,30.65
2018-05-14T08:37:15.236Z,30.63
2018-05-14T08:38:15.437Z,30.87
2018-05-14T08:39:15.591Z,30.84
2018-05-14T08:40:14.954Z,31.00
2018-05-14T08:41:15.047Z,31.03
2018-05-14T08:42:15.608Z,30.87
2018-05-14T08:43:14.640Z,31.00
2018-05-14T08:44:14.927Z,31.14
2018-05-14T08:45:15.258Z,31.21
2018-05-14T08:46:15.158Z,31.03
2018-05-14T08:47:14.945Z,31.12
2018-05-14T08:48:14.766Z,31.44
2018-05-14T08:49:14.759Z,31.69
2018-05-14T08:50:14.495Z,31.74
2018-05-14T08:51:16.153Z,32.07
2018-05-14T08:52:15.428Z,32.38
2018-05-14T08:53:15.204Z,32.33
2018-05-14T08:54:36.582Z,32.23
2018-05-14T08:55:36.486Z,32.40
2018-05-14T08:56:36.321Z,32.43
2018-05-14T08:57:36.657Z,32.77
2018-05-14T08:58:36.571Z,32.97
2018-05-14T08:59:36.885Z,32.80
2018-05-14T09:00:36.892Z,32.64
2018-05-14T09:01:37.048Z,32.43
2018-05-14T09:02:37.011Z,32.36
2018-05-14T09:03:57.642Z,32.23
2018-05-14T09:05:20.979Z,32.63
2018-05-14T09:06:21.528Z,32.55
2018-05-14T09:07:20.402Z,32.46
2018-05-14T09:08:22.250Z,32.33
2018-05-14T09:09:21.457Z,32.38
2018-05-14T09:10:41.554Z,32.30
2018-05-14T09:11:42.439Z,32.27
2018-05-14T09:12:42.406Z,32.29
2018-05-14T09:13:42.371Z,32.37
2018-05-14T09:14:42.513Z,32.18
2018-05-14T09:15:42.697Z,32.15
2018-05-14T09:16:41.603Z,32.52
2018-05-14T09:17:41.528Z,32.74
2018-05-14T09:18:43.218Z,32.56
2018-05-14T09:20:03.342Z,32.75
2018-05-14T09:21:03.721Z,33.01
2018-05-14T09:22:03.927Z,33.20
2018-05-14T09:23:04.210Z,33.14
2018-05-14T09:24:03.408Z,33.37
2018-05-14T09:25:03.852Z,33.67
2018-05-14T09:26:04.032Z,33.96
2018-05-14T09:27:04.241Z,33.80
2018-05-14T09:28:03.401Z,33.45
2018-05-14T09:29:03.789Z,33.46
2018-05-14T09:30:04.106Z,33.55
2018-05-14T09:31:24.788Z,33.79
2018-05-14T09:32:24.727Z,33.67
2018-05-14T09:33:25.053Z,33.86
2018-05-14T09:34:25.913Z,34.30
2018-05-14T09:35:25.104Z,34.42
2018-05-14T09:36:46.623Z,34.42
2018-05-14T09:37:46.770Z,34.35
2018-05-14T09:38:47.040Z,34.57
2018-05-14T09:39:47.246Z,35.00
2018-05-14T09:40:47.409Z,35.39
2018-05-14T09:41:46.569Z,35.71
2018-05-14T09:42:46.352Z,35.74
2018-05-14T09:43:46.183Z,35.27
2018-05-14T09:45:30.642Z,34.73
2018-05-14T09:46:30.422Z,34.57
2018-05-14T09:47:30.023Z,34.62
2018-05-14T09:48:30.983Z,35.05
2018-05-14T09:49:31.326Z,34.95
2018-05-14T09:50:53.745Z,34.75
2018-05-14T09:51:54.704Z,34.24
2018-05-14T09:53:14.610Z,34.25
2018-05-14T09:54:14.631Z,34.05
2018-05-14T09:55:14.511Z,33.74
2018-05-14T09:56:14.695Z,33.57
2018-05-14T09:57:14.881Z,33.45
2018-05-14T09:58:15.201Z,33.49
2018-05-14T09:59:15.524Z,33.73
2018-05-14T10:00:14.564Z,33.52
2018-05-14T10:01:15.990Z,33.52
2018-05-14T10:02:15.169Z,33.64
2018-05-14T10:03:35.941Z,34.27
2018-05-14T10:04:36.212Z,34.57
2018-05-14T10:05:36.369Z,34.62
2018-05-14T10:06:36.358Z,34.67
2018-05-14T10:07:36.302Z,34.83
2018-05-14T10:08:36.282Z,35.11
2018-05-14T10:09:36.390Z,35.24
2018-05-14T10:10:36.605Z,34.88
2018-05-14T10:11:36.848Z,34.93
2018-05-14T10:12:56.708Z,35.10
2018-05-14T10:13:56.492Z,34.77
2018-05-14T10:14:57.696Z,34.51
2018-05-14T10:15:57.063Z,34.39
2018-05-14T10:16:56.933Z,34.33
2018-05-14T10:17:57.140Z,34.21
2018-05-14T10:18:56.849Z,34.45
2018-05-14T10:20:17.973Z,34.39
2018-05-14T10:21:17.810Z,33.89
2018-05-14T10:22:17.707Z,33.83
2018-05-14T10:23:17.662Z,33.98
2018-05-14T10:24:17.619Z,34.08
2018-05-14T10:25:18.119Z,33.86
2018-05-14T10:26:17.914Z,33.74
2018-05-14T10:27:17.683Z,33.34
2018-05-14T10:28:17.519Z,33.11
2018-05-14T10:29:18.188Z,33.08
2018-05-14T10:30:18.337Z,33.68
2018-05-14T10:31:18.397Z,33.87
2018-05-14T10:32:39.263Z,33.98
2018-05-14T10:33:40.038Z,33.87
2018-05-14T10:34:41.257Z,33.81
2018-05-14T10:35:41.055Z,34.17
2018-05-14T10:36:40.403Z,34.50
2018-05-14T10:37:39.669Z,34.10
2018-05-14T10:38:40.869Z,33.95
2018-05-14T10:39:40.259Z,33.86
2018-05-14T10:40:39.125Z,33.61
2018-05-14T10:41:39.236Z,34.14
2018-05-14T10:42:39.483Z,34.02
2018-05-14T10:43:39.586Z,33.84
2018-05-14T10:44:39.959Z,33.83
2018-05-14T10:45:40.259Z,33.98
2018-05-14T10:46:39.936Z,34.23
2018-05-14T10:48:00.601Z,34.36
2018-05-14T10:49:01.471Z,34.08
2018-05-14T10:50:01.622Z,33.81
2018-05-14T10:51:22.806Z,33.58
2018-05-14T10:52:22.682Z,33.52
2018-05-14T10:53:43.828Z,34.02
2018-05-14T10:54:43.718Z,34.47
2018-05-14T10:55:43.992Z,33.89
2018-05-14T10:56:44.148Z,34.17
2018-05-14T10:57:44.325Z,34.43
2018-05-14T10:58:16.844Z,34.50
2018-05-14T10:59:17.138Z,34.78
2018-05-14T11:00:16.929Z,35.12
2018-05-14T11:01:39.444Z,34.80
2018-05-14T11:02:40.266Z,34.95
2018-05-14T11:03:40.199Z,34.81
2018-05-14T11:04:40.171Z,34.77
2018-05-14T11:05:41.137Z,34.83
2018-05-14T11:06:40.173Z,34.51
2018-05-14T11:08:12.476Z,33.71
2018-05-14T11:09:12.318Z,33.90
2018-05-14T11:10:13.149Z,33.99
2018-05-14T11:11:13.006Z,34.10
2018-05-14T11:12:12.739Z,34.11
2018-05-14T11:13:13.031Z,34.80
2018-05-14T11:14:12.945Z,35.33
2018-05-14T11:15:34.146Z,35.52
2018-05-14T11:16:33.819Z,35.36
2018-05-14T11:17:35.107Z,35.05
2018-05-14T11:18:34.255Z,34.71
2018-05-14T11:19:55.253Z,34.48
2018-05-14T11:20:55.334Z,33.86
2018-05-14T11:21:55.181Z,33.76
2018-05-14T11:23:16.105Z,33.99
2018-05-14T11:24:16.480Z,34.35
2018-05-14T11:25:16.697Z,34.62
2018-05-14T11:26:16.605Z,34.77
2018-05-14T11:27:16.381Z,34.02
2018-05-14T11:28:16.778Z,34.27
2018-05-14T11:29:17.041Z,34.47
2018-05-14T11:30:17.406Z,34.71
2018-05-14T11:31:16.733Z,34.35
2018-05-14T11:32:16.431Z,34.20
2018-05-14T11:33:59.540Z,34.58
2018-05-14T11:35:00.510Z,34.71
2018-05-14T11:36:00.274Z,34.45
2018-05-14T11:37:20.515Z,34.86
2018-05-14T11:38:21.531Z,34.85
2018-05-14T11:39:21.531Z,34.74
2018-05-14T11:40:21.398Z,34.47
2018-05-14T11:41:21.604Z,34.55
2018-05-14T11:42:20.525Z,34.58
2018-05-14T11:43:21.361Z,34.67
2018-05-14T11:44:21.620Z,34.45
2018-05-14T11:45:20.909Z,34.52
2018-05-14T11:46:44.653Z,34.58
2018-05-14T11:47:43.607Z,34.47
2018-05-14T11:48:44.679Z,34.64
2018-05-14T11:49:43.497Z,34.35
2018-05-14T11:50:44.369Z,34.51
2018-05-14T11:52:05.620Z,34.61
2018-05-14T11:53:05.893Z,34.33
2018-05-14T11:54:05.619Z,34.29
2018-05-14T11:55:29.267Z,35.00
2018-05-14T11:56:29.162Z,35.12
2018-05-14T11:57:29.122Z,35.34
2018-05-14T11:58:29.573Z,35.66
2018-05-14T11:59:29.913Z,35.56
2018-05-14T12:00:29.674Z,35.71
2018-05-14T12:01:29.826Z,35.90
2018-05-14T12:02:29.615Z,36.24
2018-05-14T12:03:29.667Z,35.98
2018-05-14T12:04:29.531Z,35.52
2018-05-14T12:05:29.429Z,35.27
2018-05-14T12:06:29.562Z,35.55
2018-05-14T12:07:29.438Z,35.44
2018-05-14T12:08:29.425Z,35.44
2018-05-14T12:09:29.507Z,35.53
2018-05-14T12:10:29.616Z,35.73
2018-05-14T12:11:29.711Z,35.93
2018-05-14T12:12:29.841Z,35.95
2018-05-14T12:13:29.963Z,36.18
2018-05-14T12:14:28.854Z,36.47
2018-05-14T12:15:29.231Z,36.67
2018-05-14T12:16:28.877Z,36.79
2018-05-14T12:17:29.276Z,36.79
2018-05-14T12:18:29.178Z,36.30
2018-05-14T12:19:50.560Z,36.40
2018-05-14T12:20:50.754Z,36.36
2018-05-14T12:21:50.591Z,35.76
2018-05-14T12:22:50.372Z,34.92
2018-05-14T12:23:50.642Z,34.90
2018-05-14T12:24:50.379Z,35.23
2018-05-14T12:25:50.054Z,35.02
2018-05-14T12:26:51.346Z,35.26
2018-05-14T12:27:50.689Z,35.45
2018-05-14T12:28:50.916Z,35.33
2018-05-14T12:29:51.185Z,35.48
2018-05-14T12:30:50.977Z,35.17
2018-05-14T12:31:51.388Z,34.90
2018-05-14T12:32:50.606Z,34.67
2018-05-14T12:33:50.524Z,34.64
2018-05-14T12:34:50.868Z,34.83
2018-05-14T12:35:51.449Z,34.96
2018-05-14T12:36:50.858Z,34.55
2018-05-14T12:37:50.800Z,34.50
2018-05-14T12:38:50.690Z,34.88
2018-05-14T12:39:50.724Z,35.15
2018-05-14T12:40:51.667Z,35.27
2018-05-14T12:41:51.012Z,35.39
2018-05-14T12:42:50.922Z,35.12
2018-05-14T12:44:11.747Z,35.24
2018-05-14T12:45:33.680Z,35.36
2018-05-14T12:46:34.259Z,34.97
2018-05-14T12:47:34.491Z,35.00
2018-05-14T12:48:56.652Z,35.27
2018-05-14T12:49:57.527Z,35.19
2018-05-14T12:50:56.412Z,34.70
2018-05-14T12:51:56.407Z,34.64
2018-05-14T12:53:17.286Z,34.74
2018-05-14T12:54:18.202Z,35.05
2018-05-14T12:55:18.536Z,35.22
2018-05-14T12:56:17.206Z,35.60
2018-05-14T12:57:18.022Z,35.19
2018-05-14T12:58:17.852Z,34.95
2018-05-14T12:59:17.764Z,34.89
2018-05-14T13:00:41.237Z,34.55
2018-05-14T13:01:41.411Z,34.36
2018-05-14T13:02:42.368Z,33.96
2018-05-14T13:04:02.221Z,34.21
2018-05-14T13:05:03.413Z,34.50
2018-05-14T13:06:03.515Z,34.40
2018-05-14T13:07:03.409Z,34.16
2018-05-14T13:08:03.315Z,34.03
2018-05-14T13:09:02.149Z,33.96
2018-05-14T13:10:04.217Z,33.89
2018-05-14T13:11:02.232Z,34.10
2018-05-14T13:12:04.845Z,33.90
2018-05-14T13:13:03.407Z,34.14
2018-05-14T13:14:03.637Z,34.25
2018-05-14T13:15:23.590Z,34.33
2018-05-14T13:16:24.702Z,34.36
2018-05-14T13:17:24.019Z,34.03
2018-05-14T13:18:24.344Z,33.61
2018-05-14T13:19:25.372Z,33.74
2018-05-14T13:20:24.273Z,33.98
2018-05-14T13:21:24.492Z,34.02
2018-05-14T13:22:24.323Z,34.30
2018-05-14T13:23:24.284Z,34.18
2018-05-14T13:24:24.684Z,34.33
2018-05-14T13:25:44.623Z,33.98
2018-05-14T13:26:44.824Z,34.03
2018-05-14T13:27:45.621Z,33.99
2018-05-14T13:28:44.416Z,33.84
2018-05-14T13:29:44.232Z,33.65
2018-05-14T13:30:44.241Z,33.74
2018-05-14T13:31:45.066Z,33.42
2018-05-14T13:32:45.279Z,33.17